createdAt,value
2023-04-11T00:00:45.178Z,22.95
2023-04-11T00:03:23.164Z,35.47
2023-04-11T00:05:56.474Z,47.80
2023-04-11T00:08:29.680Z,37.47
2023-04-11T00:11:02.351Z,32.13
2023-04-11T00:13:35.991Z,34.92
2023-04-11T00:16:09.512Z,38.72
2023-04-11T00:18:45.563Z,26.17
2023-04-11T00:21:18.328Z,28.48
2023-04-11T00:23:53.226Z,29.58
2023-04-11T00:26:26.473Z,38.38
2023-04-11T00:28:59.533Z,40.55
2023-04-11T00:31:32.873Z,36.05
2023-04-11T00:34:06.222Z,38.83
2023-04-11T00:36:41.484Z,40.55
2023-04-11T00:39:14.712Z,46.97
2023-04-11T00:41:47.667Z,46.83
2023-04-11T00:44:20.607Z,42.53
2023-04-11T00:46:53.311Z,54.15
2023-04-11T00:49:26.658Z,42.33
2023-04-11T00:52:03.133Z,40.67
2023-04-11T00:54:36.167Z,50.92
2023-04-11T00:57:08.789Z,50.78
2023-04-11T00:59:42.135Z,48.75
2023-04-11T01:02:14.914Z,49.75
2023-04-11T01:04:48.010Z,43.80
2023-04-11T01:07:21.937Z,41.15
2023-04-11T01:09:55.432Z,48.65
2023-04-11T01:12:28.745Z,40.65
2023-04-11T01:15:02.049Z,41.15
2023-04-11T01:17:34.809Z,39.78
2023-04-11T01:20:09.765Z,50.42
2023-04-11T01:22:43.455Z,33.80
2023-04-11T01:25:18.956Z,43.58
2023-04-11T01:27:51.561Z,40.33
2023-04-11T01:30:24.719Z,56.60
2023-04-11T01:32:57.456Z,41.58
2023-04-11T01:35:31.528Z,45.83
2023-04-11T01:38:05.163Z,38.58
2023-04-11T01:40:39.158Z,44.08
2023-04-11T01:43:12.804Z,66.32
2023-04-11T01:45:45.888Z,51.35
2023-04-11T01:48:18.638Z,40.42
2023-04-11T01:50:52.386Z,44.28
2023-04-11T01:53:25.001Z,44.45
2023-04-11T01:55:58.295Z,43.25
2023-04-11T01:58:31.202Z,42.45
2023-04-11T02:01:04.485Z,49.33
2023-04-11T02:03:37.339Z,38.67
2023-04-11T02:06:10.428Z,42.13
2023-04-11T02:08:43.714Z,33.70
2023-04-11T02:11:16.810Z,38.65
2023-04-11T02:13:50.702Z,40.83
2023-04-11T02:16:26.243Z,41.70
2023-04-11T02:18:58.864Z,55.92
2023-04-11T02:21:32.171Z,50.95
2023-04-11T02:24:04.811Z,45.38
2023-04-11T02:26:37.812Z,41.10
2023-04-11T02:29:10.485Z,44.78
2023-04-11T02:31:43.505Z,48.35
2023-04-11T02:34:16.240Z,42.83
2023-04-11T02:36:50.154Z,36.50
2023-04-11T02:39:26.453Z,45.08
2023-04-11T02:42:02.051Z,42.90
2023-04-11T02:44:34.691Z,48.63
2023-04-11T02:47:07.750Z,42.75
2023-04-11T02:49:44.533Z,45.45
2023-04-11T02:52:23.119Z,38.97
2023-04-11T02:54:55.828Z,36.92
2023-04-11T02:57:28.868Z,43.53
2023-04-11T03:00:03.873Z,49.85
2023-04-11T03:02:46.328Z,34.10
2023-04-11T03:05:19.472Z,39.90
2023-04-11T03:07:58.140Z,40.85
2023-04-11T03:10:33.490Z,38.45
2023-04-11T03:13:07.911Z,35.25
2023-04-11T03:15:40.892Z,45.30
2023-04-11T03:18:16.243Z,47.00
2023-04-11T03:20:52.683Z,34.25
2023-04-11T03:23:25.803Z,41.22
2023-04-11T03:26:00.744Z,45.38
2023-04-11T03:28:34.279Z,45.15
2023-04-11T03:31:07.259Z,32.88
2023-04-11T03:33:40.452Z,42.22
2023-04-11T03:36:13.151Z,42.38
2023-04-11T03:38:46.417Z,38.03
2023-04-11T03:41:19.988Z,34.03
2023-04-11T03:43:53.139Z,40.75
2023-04-11T03:46:26.935Z,57.88
2023-04-11T03:49:00.214Z,35.15
2023-04-11T03:51:33.136Z,47.53
2023-04-11T03:54:09.839Z,29.30
2023-04-11T03:56:45.736Z,40.72
2023-04-11T03:59:25.245Z,51.70
2023-04-11T04:02:03.642Z,45.08
2023-04-11T04:04:39.333Z,39.17
2023-04-11T04:07:28.028Z,33.47
2023-04-11T04:10:10.388Z,44.17
2023-04-11T04:12:44.158Z,39.67
2023-04-11T04:15:21.861Z,52.53
2023-04-11T04:17:55.767Z,41.83
2023-04-11T04:20:42.111Z,44.40
2023-04-11T04:23:18.528Z,46.40
2023-04-11T04:26:02.666Z,35.45
2023-04-11T04:28:38.207Z,35.08
2023-04-11T04:31:11.387Z,37.85
2023-04-11T04:33:47.574Z,44.63
2023-04-11T04:36:28.978Z,50.58
2023-04-11T04:39:03.533Z,38.30
2023-04-11T04:41:42.441Z,36.28
2023-04-11T04:44:16.732Z,37.60
2023-04-11T04:46:57.239Z,33.13
2023-04-11T04:49:34.806Z,41.33
2023-04-11T04:52:07.953Z,48.20
2023-04-11T04:54:41.703Z,36.20
2023-04-11T04:57:14.946Z,56.03
2023-04-11T04:59:47.985Z,41.17
2023-04-11T05:02:22.262Z,45.33
2023-04-11T05:04:56.081Z,44.75
2023-04-11T05:07:30.806Z,34.63
2023-04-11T05:10:03.746Z,47.17
2023-04-11T05:12:36.942Z,41.97
2023-04-11T05:15:12.895Z,39.78
2023-04-11T05:17:47.238Z,49.33
2023-04-11T05:20:22.354Z,42.20
2023-04-11T05:22:56.304Z,34.17
2023-04-11T05:25:29.346Z,42.25
2023-04-11T05:28:02.404Z,39.90
2023-04-11T05:30:35.322Z,45.38
2023-04-11T05:33:09.589Z,39.70
2023-04-11T05:35:42.311Z,42.78
2023-04-11T05:38:15.740Z,38.75
2023-04-11T05:40:48.533Z,44.33
2023-04-11T05:43:21.752Z,45.67
2023-04-11T05:45:54.483Z,42.97
2023-04-11T05:48:27.787Z,38.65
2023-04-11T05:51:00.789Z,39.75
2023-04-11T05:53:33.767Z,55.97
2023-04-11T05:56:07.161Z,40.35
2023-04-11T05:58:40.963Z,32.97
2023-04-11T06:01:14.737Z,44.40
2023-04-11T06:03:48.141Z,44.38
2023-04-11T06:06:20.957Z,27.13
2023-04-11T06:08:54.666Z,45.65
2023-04-11T06:11:28.497Z,44.70
2023-04-11T06:14:01.442Z,40.65
2023-04-11T06:16:37.080Z,41.90
2023-04-11T06:19:10.108Z,37.63
2023-04-11T06:21:42.795Z,45.47
2023-04-11T06:24:18.562Z,46.30
2023-04-11T06:26:51.197Z,43.63
2023-04-11T06:29:24.149Z,56.95
2023-04-11T06:31:56.966Z,52.60
2023-04-11T06:34:29.996Z,48.03
2023-04-11T06:37:02.680Z,56.75
2023-04-11T06:39:35.951Z,41.35
2023-04-11T06:42:08.646Z,58.67
2023-04-11T06:44:41.623Z,49.47
2023-04-11T06:47:14.386Z,53.63
2023-04-11T06:49:47.383Z,51.13
2023-04-11T06:52:20.076Z,53.25
2023-04-11T06:54:53.204Z,49.75
2023-04-11T06:57:26.392Z,57.65
2023-04-11T06:59:59.425Z,57.50
2023-04-11T07:02:32.670Z,61.67
2023-04-11T07:05:06.463Z,55.58
2023-04-11T07:07:39.571Z,45.38
2023-04-11T07:10:13.723Z,48.25
2023-04-11T07:12:46.756Z,61.60
2023-04-11T07:15:19.788Z,55.97
2023-04-11T07:17:53.015Z,47.70
2023-04-11T07:20:26.446Z,48.33
2023-04-11T07:22:59.350Z,46.47
2023-04-11T07:25:33.945Z,31.90
2023-04-11T07:28:09.479Z,38.55
2023-04-11T07:30:42.917Z,40.35
2023-04-11T07:33:15.782Z,52.72
2023-04-11T07:35:48.840Z,46.38
2023-04-11T07:38:29.763Z,37.10
2023-04-11T07:41:03.517Z,36.55
2023-04-11T07:43:36.796Z,46.28
2023-04-11T07:46:09.899Z,37.97
2023-04-11T07:48:43.423Z,28.77
2023-04-11T07:51:20.154Z,34.85
2023-04-11T07:53:52.819Z,39.75
2023-04-11T07:56:26.053Z,36.83
2023-04-11T07:58:58.894Z,31.33
2023-04-11T08:01:32.638Z,35.58
2023-04-11T08:04:05.625Z,32.50
2023-04-11T08:06:39.042Z,23.90
2023-04-11T08:09:11.605Z,34.85
2023-04-11T08:11:44.685Z,24.70
2023-04-11T08:14:17.473Z,27.25
2023-04-11T08:16:52.322Z,35.20
2023-04-11T08:19:25.576Z,33.17
2023-04-11T08:21:58.674Z,32.78
2023-04-11T08:24:31.606Z,32.95
2023-04-11T08:27:04.629Z,26.92
2023-04-11T08:29:37.246Z,29.90
2023-04-11T08:32:10.402Z,33.38
2023-04-11T08:34:42.967Z,29.63
2023-04-11T08:37:16.064Z,27.67
2023-04-11T08:39:48.629Z,28.13
2023-04-11T08:42:23.255Z,34.42
2023-04-11T08:44:56.682Z,32.35
2023-04-11T08:47:29.633Z,24.83
2023-04-11T08:50:02.336Z,40.65
2023-04-11T08:52:36.350Z,36.42
2023-04-11T08:55:09.295Z,31.00
2023-04-11T08:57:42.837Z,24.75
2023-04-11T09:00:19.424Z,30.90
2023-04-11T09:03:03.675Z,29.85
2023-04-11T09:05:41.300Z,30.65
2023-04-11T09:08:15.234Z,31.48
2023-04-11T09:10:48.094Z,26.70
2023-04-11T09:13:27.776Z,30.10
2023-04-11T09:16:06.344Z,24.38
2023-04-11T09:18:47.042Z,25.60
2023-04-11T09:21:20.013Z,27.20
2023-04-11T09:23:53.346Z,29.58
2023-04-11T09:26:27.260Z,27.52
2023-04-11T09:29:00.475Z,34.83
2023-04-11T09:31:43.550Z,24.73
2023-04-11T09:34:23.925Z,23.27
2023-04-11T09:36:56.739Z,24.75
2023-04-11T09:39:30.506Z,24.73
2023-04-11T09:42:23.182Z,19.00
2023-04-11T09:44:56.235Z,21.35
2023-04-11T09:47:34.743Z,19.80
2023-04-11T09:50:08.333Z,18.30
2023-04-11T09:52:43.454Z,19.10
2023-04-11T09:55:19.593Z,20.67
2023-04-11T09:57:52.871Z,18.98
2023-04-11T10:00:29.889Z,18.85
2023-04-11T10:03:02.897Z,20.45
2023-04-11T10:05:37.751Z,39.75
2023-04-11T10:08:31.006Z,21.92
2023-04-11T10:11:05.858Z,20.88
2023-04-11T10:13:39.606Z,22.42
2023-04-11T10:16:16.813Z,24.42
2023-04-11T10:18:55.403Z,21.27
2023-04-11T10:21:31.371Z,34.65
2023-04-11T10:24:17.741Z,22.90
2023-04-11T10:27:01.202Z,26.17
2023-04-11T10:29:34.222Z,19.33
2023-04-11T10:32:19.474Z,19.45
2023-04-11T10:34:54.943Z,28.92
2023-04-11T10:37:31.050Z,25.90
2023-04-11T10:40:07.578Z,17.98
2023-04-11T10:42:44.599Z,26.75
2023-04-11T10:45:30.374Z,15.57
2023-04-11T10:48:05.920Z,17.92
2023-04-11T10:50:41.210Z,21.52
2023-04-11T10:53:34.446Z,25.10
2023-04-11T10:56:07.141Z,24.85
2023-04-11T10:58:40.771Z,23.92
2023-04-11T11:01:26.512Z,16.23
2023-04-11T11:04:10.287Z,12.88
2023-04-11T11:06:51.079Z,16.45
2023-04-11T11:09:29.636Z,19.27
2023-04-11T11:12:09.263Z,14.13
2023-04-11T11:14:45.275Z,20.42
2023-04-11T11:17:18.120Z,18.48
2023-04-11T11:19:51.405Z,17.52
2023-04-11T11:22:26.756Z,18.90
2023-04-11T11:25:07.938Z,21.00
2023-04-11T11:27:40.918Z,9.95
2023-04-11T11:30:14.296Z,7.88
2023-04-11T11:32:47.036Z,9.10
2023-04-11T11:35:20.146Z,10.60
2023-04-11T11:37:53.450Z,6.68
2023-04-11T11:40:26.694Z,8.40
2023-04-11T11:42:59.442Z,8.45
2023-04-11T11:45:33.904Z,7.85
2023-04-11T11:48:06.854Z,4.88
2023-04-11T11:50:39.822Z,6.25
2023-04-11T11:53:14.281Z,7.65
2023-04-11T11:55:47.523Z,8.45
2023-04-11T11:58:20.822Z,15.85
2023-04-11T12:00:54.551Z,7.65
2023-04-11T12:03:30.164Z,10.63
2023-04-11T12:06:03.211Z,9.80
2023-04-11T12:08:40.636Z,11.15
2023-04-11T12:11:17.267Z,6.90
2023-04-11T12:13:52.503Z,9.82
2023-04-11T12:16:25.523Z,10.02
2023-04-11T12:18:58.849Z,6.47
2023-04-11T12:21:32.330Z,9.02
2023-04-11T12:24:05.226Z,12.38
2023-04-11T12:26:42.723Z,6.68
2023-04-11T12:29:22.338Z,10.80
2023-04-11T12:31:55.312Z,14.73
2023-04-11T12:34:28.051Z,11.35
2023-04-11T12:37:01.216Z,12.65
2023-04-11T12:39:33.862Z,11.63
2023-04-11T12:42:07.011Z,12.43
2023-04-11T12:44:39.775Z,13.20
2023-04-11T12:47:12.705Z,10.13
2023-04-11T12:49:45.376Z,12.82
2023-04-11T12:52:18.521Z,9.82
2023-04-11T12:54:51.347Z,10.02
2023-04-11T12:57:24.493Z,7.57
2023-04-11T12:59:57.285Z,9.93
2023-04-11T13:02:38.250Z,8.13
2023-04-11T13:05:16.104Z,7.88
2023-04-11T13:07:49.710Z,8.75
2023-04-11T13:10:22.505Z,12.65
2023-04-11T13:12:58.638Z,11.65
2023-04-11T13:15:33.151Z,8.32
2023-04-11T13:18:06.306Z,10.77
2023-04-11T13:20:39.006Z,67.75
2023-04-11T13:23:12.226Z,17.73
2023-04-11T13:25:45.497Z,13.50
2023-04-11T13:28:18.928Z,21.42
2023-04-11T13:30:52.620Z,16.15
2023-04-11T13:33:26.898Z,12.50
2023-04-11T13:35:59.699Z,13.77
2023-04-11T13:38:33.807Z,16.25
2023-04-11T13:41:06.584Z,22.33
2023-04-11T13:43:39.684Z,9.23
2023-04-11T13:46:12.612Z,15.27
2023-04-11T13:48:46.176Z,22.45
2023-04-11T13:51:19.376Z,23.67
2023-04-11T13:53:52.281Z,15.32
2023-04-11T13:56:26.905Z,9.52
2023-04-11T13:59:00.170Z,5.30
2023-04-11T14:01:33.152Z,2.97
2023-04-11T14:04:06.297Z,2.97
2023-04-11T14:06:39.571Z,6.18
2023-04-11T14:09:12.514Z,1.95
2023-04-11T14:11:45.257Z,3.65
2023-04-11T14:14:18.209Z,5.28
2023-04-11T14:16:51.074Z,5.53
2023-04-11T14:19:25.318Z,1.60
2023-04-11T14:21:58.433Z,1.70
2023-04-11T14:24:32.052Z,1.88
2023-04-11T14:27:04.683Z,7.93
2023-04-11T14:29:38.759Z,3.65
2023-04-11T14:32:11.849Z,5.80
2023-04-11T14:34:45.082Z,4.88
2023-04-11T14:37:18.423Z,8.50
2023-04-11T14:39:51.611Z,7.47
2023-04-11T14:42:24.454Z,6.10
2023-04-11T14:44:57.439Z,3.42
2023-04-11T14:47:30.222Z,8.93
2023-04-11T14:50:03.279Z,4.82
2023-04-11T14:52:36.042Z,5.85
2023-04-11T14:55:09.321Z,6.93
2023-04-11T14:57:46.746Z,5.78
2023-04-11T15:00:20.388Z,5.05
2023-04-11T15:02:54.270Z,7.95
2023-04-11T15:05:28.597Z,9.75
2023-04-11T15:08:01.383Z,3.72
2023-04-11T15:10:34.581Z,6.70
2023-04-11T15:13:09.350Z,12.80
2023-04-11T15:15:42.383Z,3.05
2023-04-11T15:18:30.990Z,3.25
2023-04-11T15:21:04.161Z,6.28
2023-04-11T15:23:37.068Z,6.57
2023-04-11T15:26:10.077Z,6.85
2023-04-11T15:28:44.331Z,4.85
2023-04-11T15:31:25.782Z,4.68
2023-04-11T15:34:01.709Z,7.60
2023-04-11T15:36:37.648Z,7.10
2023-04-11T15:39:10.762Z,11.98
2023-04-11T15:41:43.770Z,10.07
2023-04-11T15:44:16.423Z,17.13
2023-04-11T15:46:49.915Z,24.35
2023-04-11T15:49:23.537Z,10.50
2023-04-11T15:51:56.608Z,37.05
2023-04-11T15:54:29.475Z,32.22
2023-04-11T15:57:02.842Z,9.88
2023-04-11T15:59:38.385Z,37.22
2023-04-11T16:02:12.110Z,19.00
2023-04-11T16:04:47.951Z,61.30
2023-04-11T16:07:23.456Z,14.88
2023-04-11T16:09:57.065Z,12.88
2023-04-11T16:12:30.043Z,9.30
2023-04-11T16:15:03.121Z,10.35
2023-04-11T16:17:36.278Z,19.77
2023-04-11T16:20:12.112Z,32.53
2023-04-11T16:22:46.139Z,19.38
2023-04-11T16:25:21.726Z,20.45
2023-04-11T16:27:55.058Z,52.67
2023-04-11T16:30:28.772Z,34.25
2023-04-11T16:33:01.799Z,22.90
2023-04-11T16:35:34.506Z,27.20
2023-04-11T16:38:07.623Z,28.20
2023-04-11T16:40:40.324Z,37.78
2023-04-11T16:43:13.306Z,28.65
2023-04-11T16:45:46.097Z,34.13
2023-04-11T16:48:19.278Z,57.03
2023-04-11T16:50:53.480Z,38.28
2023-04-11T16:53:26.581Z,58.88
2023-04-11T16:55:59.268Z,34.67
2023-04-11T16:58:32.678Z,32.58
2023-04-11T17:01:05.779Z,49.17
2023-04-11T17:03:39.248Z,26.05
2023-04-11T17:06:17.517Z,18.42
2023-04-11T17:08:50.575Z,17.35
2023-04-11T17:11:23.272Z,12.35
2023-04-11T17:13:56.861Z,8.82
2023-04-11T17:16:29.786Z,13.30
2023-04-11T17:19:02.809Z,6.60
2023-04-11T17:21:35.514Z,7.95
2023-04-11T17:24:08.492Z,8.93
2023-04-11T17:26:41.514Z,10.75
2023-04-11T17:29:14.611Z,13.38
2023-04-11T17:31:47.632Z,12.50
2023-04-11T17:34:20.666Z,22.10
2023-04-11T17:36:53.356Z,23.20
2023-04-11T17:39:26.427Z,15.68
2023-04-11T17:41:59.125Z,15.38
2023-04-11T17:44:32.161Z,20.17
2023-04-11T17:47:04.807Z,20.50
2023-04-11T17:49:37.854Z,24.33
2023-04-11T17:52:10.500Z,30.08
2023-04-11T17:54:43.478Z,16.70
2023-04-11T17:57:18.299Z,12.43
2023-04-11T17:59:51.838Z,13.57
2023-04-11T18:02:26.244Z,8.95
2023-04-11T18:05:00.864Z,4.22
2023-04-11T18:07:33.661Z,4.60
2023-04-11T18:10:07.152Z,8.75
2023-04-11T18:12:39.757Z,5.22
2023-04-11T18:15:12.892Z,8.82
2023-04-11T18:17:46.083Z,4.40
2023-04-11T18:20:19.295Z,13.13
2023-04-11T18:22:54.955Z,5.53
2023-04-11T18:25:28.093Z,3.63
2023-04-11T18:28:00.837Z,6.22
2023-04-11T18:30:33.845Z,8.77
2023-04-11T18:33:06.426Z,11.57
2023-04-11T18:35:39.628Z,7.78
2023-04-11T18:38:12.348Z,6.97
2023-04-11T18:40:46.074Z,5.82
2023-04-11T18:43:19.382Z,13.13
2023-04-11T18:45:52.493Z,10.95
2023-04-11T18:48:25.136Z,7.43
2023-04-11T18:50:59.208Z,11.25
2023-04-11T18:53:31.862Z,6.53
2023-04-11T18:56:05.383Z,14.13
2023-04-11T18:58:45.592Z,8.68
2023-04-11T19:01:19.511Z,9.32
2023-04-11T19:03:56.150Z,9.98
2023-04-11T19:06:29.341Z,7.60
2023-04-11T19:09:02.694Z,11.55
2023-04-11T19:11:38.189Z,12.57
2023-04-11T19:14:11.102Z,9.43
2023-04-11T19:16:44.632Z,16.92
2023-04-11T19:19:17.325Z,7.03
2023-04-11T19:21:50.236Z,14.77
2023-04-11T19:24:22.861Z,7.50
2023-04-11T19:26:56.402Z,8.35
2023-04-11T19:29:29.126Z,6.68
2023-04-11T19:32:02.162Z,12.07
2023-04-11T19:34:35.473Z,7.53
2023-04-11T19:37:08.764Z,6.28
2023-04-11T19:39:41.855Z,8.70
2023-04-11T19:42:14.808Z,9.18
2023-04-11T19:44:47.535Z,8.52
2023-04-11T19:47:20.600Z,12.75
2023-04-11T19:49:53.397Z,13.70
2023-04-11T19:52:27.153Z,8.77
2023-04-11T19:54:59.771Z,4.75
2023-04-11T19:57:32.842Z,5.75
2023-04-11T20:00:14.571Z,8.90
2023-04-11T20:02:50.819Z,4.43
2023-04-11T20:05:24.171Z,5.70
2023-04-11T20:07:57.183Z,6.28
2023-04-11T20:10:29.817Z,7.75
2023-04-11T20:13:02.848Z,8.43
2023-04-11T20:15:36.069Z,8.73
2023-04-11T20:18:09.163Z,6.20
2023-04-11T20:20:41.808Z,8.20
2023-04-11T20:23:16.187Z,18.58
2023-04-11T20:25:48.907Z,12.68
2023-04-11T20:28:22.012Z,7.45
2023-04-11T20:30:54.823Z,4.32
2023-04-11T20:33:28.057Z,5.22
2023-04-11T20:36:00.930Z,10.32
2023-04-11T20:38:34.010Z,15.38
2023-04-11T20:41:06.730Z,7.20
2023-04-11T20:43:42.425Z,5.30
2023-04-11T20:46:15.098Z,6.93
2023-04-11T20:48:50.264Z,5.00
2023-04-11T20:51:22.981Z,1.95
2023-04-11T20:53:56.352Z,2.08
2023-04-11T20:56:35.481Z,4.05
2023-04-11T20:59:09.541Z,4.50
2023-04-11T21:01:42.291Z,2.92
2023-04-11T21:04:18.091Z,4.85
2023-04-11T21:06:51.574Z,3.08
2023-04-11T21:09:24.540Z,2.55
2023-04-11T21:11:57.311Z,1.02
2023-04-11T21:14:33.304Z,1.00
2023-04-11T21:17:07.844Z,0.80
2023-04-11T21:19:41.474Z,1.45
2023-04-11T21:22:14.052Z,4.72
2023-04-11T21:24:47.230Z,1.50
2023-04-11T21:27:19.774Z,1.30
2023-04-11T21:29:52.697Z,4.80
2023-04-11T21:32:25.331Z,1.42
2023-04-11T21:34:58.302Z,1.65
2023-04-11T21:37:31.134Z,1.13
2023-04-11T21:40:04.591Z,3.20
2023-04-11T21:42:37.251Z,2.03
2023-04-11T21:45:10.926Z,3.53
2023-04-11T21:47:43.732Z,2.08
2023-04-11T21:50:16.914Z,2.25
2023-04-11T21:52:49.631Z,7.53
2023-04-11T21:55:22.700Z,4.65
2023-04-11T21:57:56.070Z,5.43
2023-04-11T22:00:29.087Z,9.77
2023-04-11T22:03:02.263Z,3.15
2023-04-11T22:05:42.189Z,5.03
2023-04-11T22:08:20.532Z,7.97
2023-04-11T22:10:54.586Z,4.35
2023-04-11T22:13:27.205Z,5.50
2023-04-11T22:16:05.579Z,3.60
2023-04-11T22:18:58.544Z,2.92
2023-04-11T22:21:33.205Z,3.50
2023-04-11T22:24:09.807Z,6.13
2023-04-11T22:26:49.237Z,2.92
2023-04-11T22:29:22.528Z,3.75
2023-04-11T22:31:55.572Z,3.92
2023-04-11T22:34:28.232Z,4.68
2023-04-11T22:37:01.827Z,7.93
2023-04-11T22:39:35.000Z,1.77
2023-04-11T22:42:08.010Z,2.58
2023-04-11T22:44:40.710Z,2.58
2023-04-11T22:47:16.912Z,4.63
2023-04-11T22:49:50.733Z,3.72
2023-04-11T22:52:26.687Z,1.45
2023-04-11T22:54:59.383Z,4.38
2023-04-11T22:57:32.380Z,3.92
2023-04-11T23:00:07.501Z,5.38
2023-04-11T23:02:40.527Z,3.20
2023-04-11T23:05:13.395Z,5.30
2023-04-11T23:07:46.804Z,4.82
2023-04-11T23:10:19.744Z,3.67
2023-04-11T23:12:53.023Z,4.57
2023-04-11T23:15:26.154Z,1.75
2023-04-11T23:17:59.443Z,4.07
2023-04-11T23:20:34.483Z,4.93
2023-04-11T23:23:07.472Z,2.38
2023-04-11T23:25:41.113Z,5.25
2023-04-11T23:28:14.122Z,2.50
2023-04-11T23:30:46.834Z,3.72
2023-04-11T23:33:20.030Z,5.80
2023-04-11T23:35:53.220Z,4.70
2023-04-11T23:38:26.612Z,3.20
2023-04-11T23:40:59.643Z,3.67
2023-04-11T23:43:32.872Z,2.78
2023-04-11T23:46:05.703Z,2.55
2023-04-11T23:48:38.759Z,3.47
2023-04-11T23:51:11.379Z,1.88
2023-04-11T23:53:46.342Z,4.95
2023-04-11T23:56:19.053Z,8.48
2023-04-11T23:58:52.030Z,7.95
